createdAt,value
2022-11-18T00:03:32.197Z,11.90
2022-11-18T00:06:38.512Z,12.20
2022-11-18T00:13:06.697Z,13.00
2022-11-18T00:16:14.396Z,11.40
2022-11-18T00:19:21.763Z,12.00
2022-11-18T00:22:29.996Z,11.90
2022-11-18T00:25:36.789Z,12.30
2022-11-18T00:28:43.520Z,11.30
2022-11-18T00:31:49.916Z,11.60
2022-11-18T00:38:01.000Z,11.80
2022-11-18T00:41:09.548Z,11.60
2022-11-18T00:44:15.797Z,12.50
2022-11-18T00:47:22.068Z,12.10
2022-11-18T00:53:33.228Z,12.30
2022-11-18T00:59:44.189Z,11.00
2022-11-18T01:05:55.238Z,12.20
2022-11-18T01:09:01.547Z,11.80
2022-11-18T01:15:30.115Z,11.90
2022-11-18T01:21:41.140Z,10.60
2022-11-18T01:24:47.402Z,10.00
2022-11-18T01:27:53.720Z,11.00
2022-11-18T01:34:10.879Z,10.50
2022-11-18T01:40:22.205Z,10.70
2022-11-18T01:43:48.624Z,11.60
2022-11-18T01:46:54.945Z,9.80
2022-11-18T01:53:10.780Z,10.30
2022-11-18T01:56:20.249Z,10.80
2022-11-18T01:59:31.557Z,10.80
2022-11-18T02:02:39.920Z,11.00
2022-11-18T02:05:48.070Z,10.90
2022-11-18T02:08:55.987Z,10.30
2022-11-18T02:12:02.583Z,10.00
2022-11-18T02:15:11.059Z,12.20
2022-11-18T02:18:30.264Z,10.90
2022-11-18T02:21:49.739Z,10.90
2022-11-18T02:25:06.558Z,12.40
2022-11-18T02:28:40.474Z,11.40
2022-11-18T02:31:54.003Z,12.10
2022-11-18T02:35:08.267Z,12.10
2022-11-18T02:38:20.154Z,12.40
2022-11-18T02:41:29.994Z,11.50
2022-11-18T02:44:38.830Z,12.00
2022-11-18T02:47:47.570Z,11.70
2022-11-18T02:50:55.704Z,10.30
2022-11-18T02:54:05.521Z,11.80
2022-11-18T02:57:13.064Z,10.80
2022-11-18T03:00:20.559Z,10.70
2022-11-18T03:03:31.039Z,10.50
2022-11-18T03:06:41.117Z,10.80
2022-11-18T03:09:52.998Z,11.60
2022-11-18T03:13:10.603Z,11.00
2022-11-18T03:16:24.345Z,10.90
2022-11-18T03:19:40.904Z,10.50
2022-11-18T03:22:52.441Z,9.90
2022-11-18T03:26:03.597Z,10.50
2022-11-18T03:29:17.528Z,10.50
2022-11-18T03:32:29.419Z,10.20
2022-11-18T03:35:41.330Z,10.10
2022-11-18T03:38:52.893Z,9.40
2022-11-18T03:42:05.396Z,10.10
2022-11-18T03:45:18.740Z,10.70
2022-11-18T03:48:28.108Z,9.90
2022-11-18T03:51:39.401Z,11.20
2022-11-18T03:54:49.773Z,10.20
2022-11-18T03:58:02.073Z,11.30
2022-11-18T04:01:17.244Z,11.30
2022-11-18T04:04:24.677Z,11.80
2022-11-18T04:07:34.781Z,12.00
2022-11-18T04:10:47.225Z,12.50
2022-11-18T04:13:53.549Z,12.40
2022-11-18T04:20:04.535Z,12.70
2022-11-18T04:23:11.230Z,13.10
2022-11-18T04:26:18.529Z,12.80
2022-11-18T04:29:24.866Z,13.10
2022-11-18T04:35:35.754Z,13.20
2022-11-18T04:38:42.009Z,12.30
2022-11-18T04:45:05.601Z,10.30
2022-11-18T04:48:11.874Z,12.60
2022-11-18T04:54:23.772Z,13.60
2022-11-18T04:57:30.142Z,13.80
2022-11-18T05:03:45.080Z,13.50
2022-11-18T05:06:54.442Z,13.90
2022-11-18T05:10:00.814Z,14.40
2022-11-18T05:16:11.828Z,13.80
2022-11-18T05:19:18.626Z,14.80
2022-11-18T05:22:25.074Z,15.60
2022-11-18T05:28:36.185Z,14.50
2022-11-18T05:31:42.630Z,14.80
2022-11-18T05:34:48.888Z,14.90
2022-11-18T05:40:59.697Z,14.80
2022-11-18T05:47:11.291Z,15.70
2022-11-18T05:50:21.337Z,16.30
2022-11-18T05:53:28.326Z,17.10
2022-11-18T05:56:38.103Z,15.40
2022-11-18T05:59:44.450Z,16.40
2022-11-18T06:05:59.561Z,17.40
2022-11-18T06:09:09.485Z,16.70
2022-11-18T06:12:21.099Z,16.00
2022-11-18T06:15:31.542Z,15.60
2022-11-18T06:18:39.222Z,16.10
2022-11-18T06:21:46.320Z,15.40
2022-11-18T06:24:52.826Z,15.20
2022-11-18T06:28:01.979Z,16.10
2022-11-18T06:31:08.645Z,16.40
2022-11-18T06:34:15.655Z,15.30
2022-11-18T06:37:22.825Z,15.80
2022-11-18T06:40:34.280Z,14.30
2022-11-18T06:43:41.712Z,15.90
2022-11-18T06:46:57.211Z,15.90
2022-11-18T06:50:03.497Z,15.90
2022-11-18T06:56:16.220Z,16.20
2022-11-18T06:59:24.558Z,17.30
2022-11-18T07:02:30.978Z,14.10
2022-11-18T07:05:37.333Z,15.00
2022-11-18T07:11:49.298Z,14.80
2022-11-18T07:18:00.031Z,15.50
2022-11-18T07:21:08.505Z,17.30
2022-11-18T07:24:17.251Z,16.10
2022-11-18T07:27:23.574Z,15.20
2022-11-18T07:33:35.313Z,12.10
2022-11-18T07:36:41.517Z,11.80
2022-11-18T07:39:47.762Z,11.30
2022-11-18T07:42:55.014Z,10.90
2022-11-18T07:46:09.679Z,11.10
2022-11-18T07:49:16.272Z,10.20
2022-11-18T07:52:22.744Z,11.40
2022-11-18T07:58:38.960Z,11.20
2022-11-18T08:01:45.319Z,11.40
2022-11-18T08:04:51.746Z,11.20
2022-11-18T08:11:06.243Z,10.10
2022-11-18T08:14:12.510Z,10.10
2022-11-18T08:17:18.783Z,9.80
2022-11-18T08:23:38.847Z,10.70
2022-11-18T08:26:48.028Z,10.50
2022-11-18T08:32:59.841Z,10.40
2022-11-18T08:36:11.391Z,11.20
2022-11-18T08:39:17.914Z,10.30
2022-11-18T08:42:28.724Z,10.50
2022-11-18T08:45:40.050Z,9.70
2022-11-18T08:48:46.344Z,9.90
2022-11-18T08:54:57.227Z,10.10
2022-11-18T08:58:03.548Z,9.80
2022-11-18T09:04:15.646Z,9.50
2022-11-18T09:10:26.969Z,11.90
2022-11-18T09:13:53.656Z,8.60
2022-11-18T09:16:59.481Z,9.10
2022-11-18T09:23:10.354Z,9.40
2022-11-18T09:29:26.415Z,7.80
2022-11-18T09:32:33.808Z,7.80
2022-11-18T09:35:45.069Z,8.20
2022-11-18T09:38:53.239Z,8.00
2022-11-18T09:42:07.456Z,8.60
2022-11-18T09:45:25.520Z,8.50
2022-11-18T09:48:46.542Z,8.60
2022-11-18T09:51:56.066Z,7.20
2022-11-18T09:55:02.921Z,8.50
2022-11-18T09:58:16.791Z,9.50
2022-11-18T10:01:27.239Z,9.40
2022-11-18T10:04:34.074Z,9.90
2022-11-18T10:07:47.383Z,9.50
2022-11-18T10:11:02.269Z,9.40
2022-11-18T10:14:20.743Z,9.80
2022-11-18T10:17:41.855Z,9.60
2022-11-18T10:20:56.747Z,9.50
2022-11-18T10:24:09.805Z,9.70
2022-11-18T10:27:17.285Z,9.50
2022-11-18T10:30:25.108Z,9.30
2022-11-18T10:33:32.198Z,9.30
2022-11-18T10:36:38.737Z,9.50
2022-11-18T10:39:55.273Z,10.40
2022-11-18T10:43:01.560Z,11.10
2022-11-18T10:49:23.092Z,9.60
2022-11-18T10:55:34.538Z,9.30
2022-11-18T10:58:45.305Z,7.90
2022-11-18T11:02:09.456Z,8.50
2022-11-18T11:05:23.857Z,8.30
2022-11-18T11:08:36.996Z,8.60
2022-11-18T11:11:57.002Z,9.50
2022-11-18T11:15:06.695Z,9.00
2022-11-18T11:18:39.128Z,10.80
2022-11-18T11:21:45.469Z,10.70
2022-11-18T11:28:18.462Z,11.50
2022-11-18T11:31:32.537Z,11.50
2022-11-18T11:34:45.536Z,9.90
2022-11-18T11:37:57.275Z,9.90
2022-11-18T11:41:15.436Z,10.90
2022-11-18T11:44:46.415Z,10.50
2022-11-18T11:48:09.913Z,9.70
2022-11-18T11:51:25.563Z,10.80
2022-11-18T11:54:53.102Z,9.80
2022-11-18T11:58:17.866Z,9.90
2022-11-18T12:01:33.204Z,10.40
2022-11-18T12:04:48.032Z,10.80
2022-11-18T12:07:57.805Z,10.50
2022-11-18T12:11:15.345Z,10.30
2022-11-18T12:14:35.775Z,11.80
2022-11-18T12:17:53.836Z,13.10
2022-11-18T12:21:00.119Z,12.00
2022-11-18T12:28:00.614Z,9.20
2022-11-18T12:31:33.635Z,9.50
2022-11-18T12:34:43.378Z,10.60
2022-11-18T12:38:04.246Z,9.90
2022-11-18T12:42:09.371Z,11.20
2022-11-18T12:45:51.469Z,12.20
2022-11-18T12:48:58.090Z,11.30
2022-11-18T12:52:06.014Z,11.70
2022-11-18T12:55:19.611Z,11.80
2022-11-18T12:58:29.598Z,15.90
2022-11-18T13:01:36.782Z,15.70
2022-11-18T13:04:46.678Z,14.30
2022-11-18T13:08:17.529Z,13.60
2022-11-18T13:11:42.187Z,15.30
2022-11-18T13:15:06.140Z,13.50
2022-11-18T13:18:17.012Z,13.30
2022-11-18T13:21:47.233Z,14.00
2022-11-18T13:24:54.353Z,13.00
2022-11-18T13:28:11.845Z,13.20
2022-11-18T13:31:24.439Z,13.00
2022-11-18T13:34:32.270Z,13.10
2022-11-18T13:37:49.149Z,13.90
2022-11-18T13:41:13.209Z,14.30
2022-11-18T13:44:24.320Z,13.00
2022-11-18T13:47:41.604Z,12.80
2022-11-18T13:50:54.088Z,12.30
2022-11-18T13:54:00.612Z,13.10
2022-11-18T13:57:07.059Z,13.10
2022-11-18T14:00:24.757Z,12.50
2022-11-18T14:03:35.202Z,13.20
2022-11-18T14:06:42.998Z,14.70
2022-11-18T14:09:57.701Z,13.40
2022-11-18T14:13:05.380Z,13.40
2022-11-18T14:16:34.035Z,13.80
2022-11-18T14:19:42.073Z,14.80
2022-11-18T14:22:52.130Z,14.20
2022-11-18T14:25:59.872Z,15.10
2022-11-18T14:29:21.453Z,14.70
2022-11-18T14:32:27.829Z,15.90
2022-11-18T14:35:35.059Z,16.00
2022-11-18T14:42:16.827Z,17.30
2022-11-18T14:45:24.270Z,19.30
2022-11-18T14:48:32.766Z,17.20
2022-11-18T14:51:39.251Z,17.70
2022-11-18T14:57:50.194Z,14.90
2022-11-18T15:04:01.713Z,16.30
2022-11-18T15:07:08.261Z,18.00
2022-11-18T15:10:17.230Z,17.20
2022-11-18T15:13:23.432Z,18.70
2022-11-18T15:16:31.691Z,18.40
2022-11-18T15:19:38.414Z,18.40
2022-11-18T15:22:44.808Z,18.30
2022-11-18T15:25:51.103Z,18.10
2022-11-18T15:32:05.382Z,19.30
2022-11-18T15:35:14.336Z,19.50
2022-11-18T15:38:20.614Z,18.80
2022-11-18T15:44:33.196Z,18.40
2022-11-18T15:47:39.437Z,19.80
2022-11-18T15:50:45.957Z,19.20
2022-11-18T15:53:52.519Z,18.90
2022-11-18T15:56:58.837Z,19.70
2022-11-18T16:03:10.542Z,18.80
2022-11-18T16:06:16.917Z,19.80
2022-11-18T16:12:45.973Z,20.20
2022-11-18T16:15:52.225Z,21.00
2022-11-18T16:22:03.407Z,21.80
2022-11-18T16:25:10.801Z,21.80
2022-11-18T16:28:17.274Z,22.50
2022-11-18T16:31:43.749Z,23.40
2022-11-18T16:34:50.222Z,23.80
2022-11-18T16:37:56.668Z,23.80
2022-11-18T16:41:23.124Z,27.80
2022-11-18T16:44:29.424Z,24.90
2022-11-18T16:50:40.741Z,25.10
2022-11-18T16:53:50.593Z,28.40
2022-11-18T16:56:58.190Z,25.30
2022-11-18T17:00:04.995Z,22.70
2022-11-18T17:03:11.469Z,24.50
2022-11-18T17:06:17.693Z,25.90
2022-11-18T17:09:25.217Z,26.60
2022-11-18T17:12:31.819Z,26.40
2022-11-18T17:15:39.717Z,27.60
2022-11-18T17:18:46.578Z,26.20
2022-11-18T17:21:53.421Z,26.50
2022-11-18T17:25:04.917Z,26.90
2022-11-18T17:28:11.835Z,27.10
2022-11-18T17:31:20.256Z,30.40
2022-11-18T17:34:26.593Z,28.30
2022-11-18T17:40:38.029Z,27.30
2022-11-18T17:46:49.403Z,27.30
2022-11-18T17:49:55.629Z,26.70
2022-11-18T17:53:01.931Z,27.70
2022-11-18T17:59:17.468Z,27.30
2022-11-18T18:02:23.760Z,26.40
2022-11-18T18:05:30.315Z,27.30
2022-11-18T18:08:37.092Z,25.90
2022-11-18T18:11:43.581Z,26.10
2022-11-18T18:14:49.854Z,27.80
2022-11-18T18:21:06.419Z,27.70
2022-11-18T18:24:17.576Z,30.40
2022-11-18T18:27:24.222Z,29.00
2022-11-18T18:30:30.491Z,28.90
2022-11-18T18:39:47.898Z,26.30
2022-11-18T18:42:54.113Z,26.60
2022-11-18T18:46:21.484Z,28.60
2022-11-18T18:49:27.806Z,29.40
2022-11-18T18:55:44.682Z,27.60
2022-11-18T18:58:51.713Z,26.90
2022-11-18T19:01:58.030Z,26.00
2022-11-18T19:08:09.486Z,26.70
2022-11-18T19:11:30.295Z,25.80
2022-11-18T19:14:37.741Z,25.30
2022-11-18T19:17:44.117Z,30.60
2022-11-18T19:20:50.591Z,29.00
2022-11-18T19:23:57.009Z,28.30
2022-11-18T19:27:03.648Z,29.20
2022-11-18T19:30:12.736Z,29.30
2022-11-18T19:33:19.146Z,28.30
2022-11-18T19:36:25.596Z,28.50
2022-11-18T19:39:32.053Z,27.80
2022-11-18T19:42:39.657Z,27.00
2022-11-18T19:45:53.374Z,28.60
2022-11-18T19:48:59.925Z,26.00
2022-11-18T19:52:06.261Z,28.90
2022-11-18T19:58:17.414Z,26.70
2022-11-18T20:01:25.486Z,25.20
2022-11-18T20:04:31.859Z,26.70
2022-11-18T20:10:42.787Z,28.40
2022-11-18T20:16:54.077Z,25.70
2022-11-18T20:20:00.412Z,25.90
2022-11-18T20:26:14.111Z,23.60
2022-11-18T20:29:21.148Z,22.80
2022-11-18T20:32:27.850Z,23.10
2022-11-18T20:35:34.179Z,23.30
2022-11-18T20:42:06.681Z,24.40
2022-11-18T20:45:13.956Z,23.60
2022-11-18T20:48:20.248Z,23.60
2022-11-18T20:54:31.664Z,23.20
2022-11-18T21:00:42.658Z,23.30
2022-11-18T21:03:52.761Z,22.60
2022-11-18T21:07:01.880Z,22.50
2022-11-18T21:10:09.950Z,22.10
2022-11-18T21:13:33.816Z,20.70
2022-11-18T21:16:40.997Z,23.80
2022-11-18T21:19:48.669Z,23.20
2022-11-18T21:22:55.074Z,24.30
2022-11-18T21:29:07.380Z,22.70
2022-11-18T21:32:13.841Z,24.10
2022-11-18T21:35:20.125Z,24.00
2022-11-18T21:41:31.689Z,20.60
2022-11-18T21:44:37.974Z,20.10
2022-11-18T21:50:48.809Z,17.70
2022-11-18T21:53:55.548Z,17.70
2022-11-18T21:57:02.099Z,17.90
2022-11-18T22:00:10.909Z,16.60
2022-11-18T22:03:17.250Z,16.70
2022-11-18T22:09:34.619Z,17.30
2022-11-18T22:12:42.757Z,17.10
2022-11-18T22:15:49.174Z,17.40
2022-11-18T22:19:02.570Z,17.80
2022-11-18T22:25:16.254Z,16.20
2022-11-18T22:28:22.591Z,17.20
2022-11-18T22:34:34.506Z,18.10
2022-11-18T22:40:45.329Z,16.90
2022-11-18T22:43:51.603Z,17.40
2022-11-18T22:50:02.510Z,18.10
2022-11-18T22:56:15.408Z,16.50
2022-11-18T22:59:22.399Z,16.90
2022-11-18T23:02:28.286Z,15.80
2022-11-18T23:05:33.900Z,15.80
2022-11-18T23:08:41.101Z,16.50
2022-11-18T23:12:04.400Z,15.60
2022-11-18T23:15:11.483Z,16.70
2022-11-18T23:18:17.127Z,16.20
2022-11-18T23:21:23.907Z,11.20
2022-11-18T23:24:29.479Z,14.50
2022-11-18T23:27:35.107Z,15.00
2022-11-18T23:30:40.758Z,14.30
2022-11-18T23:33:46.601Z,15.20
2022-11-18T23:36:52.266Z,16.10
2022-11-18T23:39:57.859Z,15.70
2022-11-18T23:43:03.457Z,14.80
2022-11-18T23:46:10.633Z,15.50
2022-11-18T23:49:17.138Z,15.80
2022-11-18T23:52:23.085Z,16.30
2022-11-18T23:55:28.652Z,18.00
2022-11-18T23:58:34.287Z,13.90
